createdAt,value
2023-03-01T00:00:38.541Z,9.27
2023-03-01T00:03:26.453Z,9.68
2023-03-01T00:06:14.862Z,9.45
2023-03-01T00:09:02.907Z,8.82
2023-03-01T00:11:52.378Z,8.93
2023-03-01T00:14:40.454Z,9.60
2023-03-01T00:17:29.645Z,10.18
2023-03-01T00:20:17.669Z,8.73
2023-03-01T00:23:05.716Z,9.90
2023-03-01T00:25:54.276Z,9.27
2023-03-01T00:28:44.019Z,8.65
2023-03-01T00:31:33.507Z,9.73
2023-03-01T00:34:21.235Z,10.20
2023-03-01T00:37:09.014Z,9.18
2023-03-01T00:39:56.895Z,9.23
2023-03-01T00:42:44.677Z,9.18
2023-03-01T00:45:35.219Z,9.52
2023-03-01T00:48:22.930Z,9.43
2023-03-01T00:51:12.911Z,8.73
2023-03-01T00:54:04.638Z,8.70
2023-03-01T00:56:52.443Z,9.60
2023-03-01T00:59:40.314Z,9.18
2023-03-01T01:02:29.570Z,9.02
2023-03-01T01:05:21.875Z,9.35
2023-03-01T01:08:09.589Z,8.50
2023-03-01T01:10:57.565Z,9.32
2023-03-01T01:13:47.604Z,8.88
2023-03-01T01:16:35.554Z,8.68
2023-03-01T01:19:25.239Z,8.60
2023-03-01T01:22:12.971Z,9.13
2023-03-01T01:25:01.033Z,8.57
2023-03-01T01:27:48.630Z,8.65
2023-03-01T01:30:36.509Z,8.50
2023-03-01T01:33:24.562Z,8.88
2023-03-01T01:36:14.350Z,8.45
2023-03-01T01:39:03.099Z,8.70
2023-03-01T01:41:51.156Z,8.20
2023-03-01T01:44:39.063Z,8.77
2023-03-01T01:47:27.374Z,9.02
2023-03-01T01:50:21.423Z,8.85
2023-03-01T01:53:17.068Z,8.88
2023-03-01T01:56:08.386Z,8.57
2023-03-01T01:58:57.190Z,8.40
2023-03-01T02:01:45.999Z,9.45
2023-03-01T02:04:34.467Z,8.98
2023-03-01T02:07:26.609Z,8.48
2023-03-01T02:10:16.347Z,9.25
2023-03-01T02:13:04.966Z,8.25
2023-03-01T02:15:53.029Z,10.30
2023-03-01T02:18:41.975Z,8.40
2023-03-01T02:21:41.144Z,8.50
2023-03-01T02:24:37.509Z,8.63
2023-03-01T02:27:35.222Z,10.55
2023-03-01T02:30:26.630Z,8.32
2023-03-01T02:33:13.701Z,8.52
2023-03-01T02:36:03.445Z,8.73
2023-03-01T02:38:55.494Z,8.68
2023-03-01T02:41:47.910Z,8.13
2023-03-01T02:44:35.949Z,8.25
2023-03-01T02:47:25.399Z,8.80
2023-03-01T02:50:25.483Z,9.23
2023-03-01T02:53:24.057Z,7.90
2023-03-01T02:56:13.894Z,9.13
2023-03-01T02:59:03.452Z,8.40
2023-03-01T03:01:51.233Z,8.38
2023-03-01T03:04:40.505Z,8.52
2023-03-01T03:07:28.304Z,9.27
2023-03-01T03:10:22.111Z,8.82
2023-03-01T03:13:12.821Z,8.45
2023-03-01T03:16:01.041Z,8.65
2023-03-01T03:18:49.342Z,8.68
2023-03-01T03:21:38.773Z,9.43
2023-03-01T03:24:27.177Z,10.35
2023-03-01T03:27:14.722Z,9.23
2023-03-01T03:30:02.800Z,8.57
2023-03-01T03:32:54.053Z,8.10
2023-03-01T03:35:45.089Z,11.68
2023-03-01T03:38:34.545Z,9.25
2023-03-01T03:41:22.370Z,9.73
2023-03-01T03:44:10.244Z,10.07
2023-03-01T03:46:58.170Z,9.50
2023-03-01T03:49:45.934Z,9.73
2023-03-01T03:52:33.896Z,9.52
2023-03-01T03:55:23.176Z,9.38
2023-03-01T03:58:12.391Z,8.60
2023-03-01T04:01:01.719Z,8.90
2023-03-01T04:03:49.681Z,8.23
2023-03-01T04:06:37.697Z,9.48
2023-03-01T04:09:25.438Z,10.88
2023-03-01T04:12:14.735Z,11.32
2023-03-01T04:15:02.751Z,10.32
2023-03-01T04:17:50.578Z,9.95
2023-03-01T04:20:39.094Z,8.93
2023-03-01T04:23:26.955Z,9.52
2023-03-01T04:26:15.059Z,8.75
2023-03-01T04:29:04.361Z,9.25
2023-03-01T04:31:52.367Z,10.85
2023-03-01T04:34:40.389Z,10.80
2023-03-01T04:37:28.505Z,9.15
2023-03-01T04:40:18.126Z,8.85
2023-03-01T04:43:06.820Z,11.45
2023-03-01T04:45:55.826Z,9.50
2023-03-01T04:48:45.341Z,10.65
2023-03-01T04:51:33.966Z,10.65
2023-03-01T04:54:21.974Z,9.10
2023-03-01T04:57:09.923Z,9.43
2023-03-01T04:59:58.054Z,9.20
2023-03-01T05:02:47.859Z,9.13
2023-03-01T05:05:37.206Z,8.82
2023-03-01T05:08:25.091Z,9.80
2023-03-01T05:11:14.090Z,10.05
2023-03-01T05:14:02.146Z,10.80
2023-03-01T05:16:50.082Z,11.85
2023-03-01T05:19:39.428Z,8.98
2023-03-01T05:22:27.216Z,9.52
2023-03-01T05:25:16.922Z,11.88
2023-03-01T05:28:05.968Z,8.60
2023-03-01T05:30:53.946Z,10.30
2023-03-01T05:33:42.981Z,9.80
2023-03-01T05:36:32.556Z,10.65
2023-03-01T05:39:20.480Z,9.73
2023-03-01T05:42:09.640Z,10.10
2023-03-01T05:44:58.070Z,9.63
2023-03-01T05:47:48.210Z,9.68
2023-03-01T05:50:37.843Z,9.73
2023-03-01T05:53:28.324Z,8.57
2023-03-01T05:56:16.047Z,9.80
2023-03-01T05:59:05.909Z,9.93
2023-03-01T06:01:54.549Z,9.15
2023-03-01T06:04:42.967Z,9.38
2023-03-01T06:07:31.189Z,9.75
2023-03-01T06:10:22.040Z,9.77
2023-03-01T06:13:10.186Z,10.07
2023-03-01T06:15:58.317Z,10.38
2023-03-01T06:18:46.292Z,11.25
2023-03-01T06:21:34.233Z,11.70
2023-03-01T06:24:22.068Z,10.68
2023-03-01T06:27:11.305Z,11.50
2023-03-01T06:29:59.173Z,13.25
2023-03-01T06:32:47.282Z,12.70
2023-03-01T06:35:35.626Z,12.77
2023-03-01T06:38:23.594Z,12.95
2023-03-01T06:41:11.653Z,11.30
2023-03-01T06:44:01.275Z,13.32
2023-03-01T06:46:49.470Z,10.27
2023-03-01T06:49:37.465Z,10.57
2023-03-01T06:52:25.323Z,12.05
2023-03-01T06:55:13.293Z,11.88
2023-03-01T06:58:02.613Z,13.80
2023-03-01T07:00:51.599Z,13.40
2023-03-01T07:03:39.251Z,12.73
2023-03-01T07:06:29.300Z,11.75
2023-03-01T07:09:20.706Z,12.40
2023-03-01T07:12:34.529Z,13.98
2023-03-01T07:15:23.399Z,12.32
2023-03-01T07:18:12.749Z,12.02
2023-03-01T07:21:07.146Z,12.73
2023-03-01T07:23:54.850Z,13.77
2023-03-01T07:26:42.950Z,14.95
2023-03-01T07:29:30.763Z,13.30
2023-03-01T07:32:18.604Z,13.23
2023-03-01T07:35:08.742Z,15.07
2023-03-01T07:37:56.479Z,14.02
2023-03-01T07:40:44.403Z,12.07
2023-03-01T07:43:32.862Z,13.02
2023-03-01T07:46:22.563Z,14.05
2023-03-01T07:49:10.683Z,13.80
2023-03-01T07:52:01.325Z,14.38
2023-03-01T07:54:49.247Z,12.52
2023-03-01T07:57:37.091Z,13.25
2023-03-01T08:00:25.384Z,13.73
2023-03-01T08:06:03.608Z,12.65
2023-03-01T08:08:52.876Z,12.55
2023-03-01T08:11:41.887Z,13.45
2023-03-01T08:14:29.604Z,12.70
2023-03-01T08:17:17.735Z,14.35
2023-03-01T08:20:07.893Z,13.23
2023-03-01T08:22:57.140Z,13.10
2023-03-01T08:25:46.240Z,13.25
2023-03-01T08:28:36.081Z,15.32
2023-03-01T08:31:26.048Z,13.57
2023-03-01T08:34:16.747Z,14.23
2023-03-01T08:37:04.743Z,14.88
2023-03-01T08:39:52.898Z,12.82
2023-03-01T08:42:43.603Z,14.00
2023-03-01T08:45:32.259Z,13.98
2023-03-01T08:48:20.250Z,12.77
2023-03-01T08:51:12.462Z,12.88
2023-03-01T08:54:00.193Z,13.85
2023-03-01T08:56:48.407Z,12.77
2023-03-01T08:59:38.314Z,13.85
2023-03-01T09:02:26.438Z,12.85
2023-03-01T09:05:14.468Z,12.88
2023-03-01T09:08:02.554Z,13.55
2023-03-01T09:10:50.552Z,12.13
2023-03-01T09:13:39.269Z,13.32
2023-03-01T09:16:31.280Z,13.82
2023-03-01T09:19:19.262Z,13.20
2023-03-01T09:22:07.335Z,12.73
2023-03-01T09:24:55.518Z,12.95
2023-03-01T09:27:43.692Z,12.82
2023-03-01T09:30:32.321Z,13.02
2023-03-01T09:33:21.722Z,12.50
2023-03-01T09:36:13.002Z,12.88
2023-03-01T09:39:01.190Z,12.85
2023-03-01T09:41:56.686Z,12.95
2023-03-01T09:44:50.220Z,12.43
2023-03-01T09:47:41.475Z,11.75
2023-03-01T09:50:35.427Z,12.90
2023-03-01T09:53:29.192Z,13.18
2023-03-01T09:56:23.362Z,12.88
2023-03-01T09:59:25.352Z,12.02
2023-03-01T10:02:28.627Z,12.38
2023-03-01T10:05:37.992Z,12.13
2023-03-01T10:08:53.063Z,12.25
2023-03-01T10:11:46.005Z,12.18
2023-03-01T10:14:39.059Z,11.00
2023-03-01T10:17:37.304Z,11.70
2023-03-01T10:20:26.941Z,12.57
2023-03-01T10:23:16.075Z,11.73
2023-03-01T10:26:21.694Z,12.73
2023-03-01T10:29:11.716Z,12.57
2023-03-01T10:31:59.693Z,12.43
2023-03-01T10:34:47.913Z,12.98
2023-03-01T10:37:35.721Z,12.80
2023-03-01T10:40:24.700Z,12.00
2023-03-01T10:43:14.881Z,11.55
2023-03-01T10:46:02.920Z,12.55
2023-03-01T10:49:09.964Z,12.70
2023-03-01T10:51:58.067Z,11.93
2023-03-01T10:54:55.625Z,11.38
2023-03-01T10:57:44.835Z,13.52
2023-03-01T11:00:33.822Z,11.93
2023-03-01T11:03:25.338Z,10.93
2023-03-01T11:06:24.448Z,11.68
2023-03-01T11:09:20.951Z,12.45
2023-03-01T11:12:17.066Z,13.10
2023-03-01T11:15:07.476Z,12.30
2023-03-01T11:18:05.717Z,11.38
2023-03-01T11:21:03.942Z,11.88
2023-03-01T11:23:51.676Z,10.27
2023-03-01T11:26:42.475Z,11.90
2023-03-01T11:29:43.233Z,10.65
2023-03-01T11:32:42.948Z,10.50
2023-03-01T11:35:34.201Z,10.93
2023-03-01T11:38:26.714Z,11.80
2023-03-01T11:41:18.989Z,10.57
2023-03-01T11:44:14.941Z,9.73
2023-03-01T11:47:30.372Z,9.35
2023-03-01T11:50:27.972Z,9.57
2023-03-01T11:53:36.409Z,10.05
2023-03-01T11:56:33.897Z,9.80
2023-03-01T11:59:47.333Z,9.05
2023-03-01T12:06:16.561Z,8.73
2023-03-01T12:09:23.050Z,9.57
2023-03-01T12:12:37.315Z,10.27
2023-03-01T12:15:43.630Z,13.13
2023-03-01T12:18:52.036Z,10.75
2023-03-01T12:22:03.098Z,11.52
2023-03-01T12:25:21.503Z,11.02
2023-03-01T12:28:35.038Z,10.90
2023-03-01T12:31:59.919Z,10.65
2023-03-01T12:35:07.124Z,9.73
2023-03-01T12:38:07.975Z,10.70
2023-03-01T12:41:18.604Z,9.70
2023-03-01T12:44:22.271Z,9.50
2023-03-01T12:47:25.340Z,10.15
2023-03-01T12:53:05.412Z,9.88
2023-03-01T12:55:56.658Z,8.77
2023-03-01T12:58:58.581Z,10.95
2023-03-01T13:01:56.630Z,10.32
2023-03-01T13:05:04.951Z,10.63
2023-03-01T13:08:02.076Z,11.50
2023-03-01T13:10:54.897Z,10.30
2023-03-01T13:13:42.441Z,9.85
2023-03-01T13:16:46.040Z,11.82
2023-03-01T13:19:36.813Z,9.32
2023-03-01T13:22:32.400Z,12.18
2023-03-01T13:25:23.129Z,11.55
2023-03-01T13:28:48.527Z,9.48
2023-03-01T13:32:04.911Z,10.20
2023-03-01T13:34:55.793Z,9.23
2023-03-01T13:37:45.334Z,9.63
2023-03-01T13:41:01.204Z,9.60
2023-03-01T13:43:50.938Z,10.25
2023-03-01T13:46:38.759Z,10.30
2023-03-01T13:49:44.343Z,8.98
2023-03-01T13:52:41.805Z,8.73
2023-03-01T13:55:42.893Z,10.70
2023-03-01T13:58:33.400Z,10.82
2023-03-01T14:01:30.660Z,10.50
2023-03-01T14:04:26.623Z,10.52
2023-03-01T14:07:20.058Z,10.02
2023-03-01T14:10:09.490Z,10.13
2023-03-01T14:13:16.120Z,10.05
2023-03-01T14:16:22.451Z,9.35
2023-03-01T14:19:32.645Z,9.32
2023-03-01T14:25:26.632Z,11.05
2023-03-01T14:28:19.699Z,10.40
2023-03-01T14:31:47.043Z,11.38
2023-03-01T14:34:48.588Z,11.15
2023-03-01T14:37:37.442Z,10.63
2023-03-01T14:40:28.258Z,11.70
2023-03-01T14:43:23.640Z,10.32
2023-03-01T14:46:23.429Z,10.27
2023-03-01T14:49:15.981Z,9.75
2023-03-01T14:52:09.068Z,10.45
2023-03-01T14:54:59.656Z,9.27
2023-03-01T14:57:51.770Z,10.60
2023-03-01T15:00:50.232Z,11.15
2023-03-01T15:03:42.294Z,10.23
2023-03-01T15:06:31.109Z,11.07
2023-03-01T15:09:21.153Z,9.77
2023-03-01T15:12:41.438Z,10.07
2023-03-01T15:15:49.034Z,9.52
2023-03-01T15:18:38.252Z,9.77
2023-03-01T15:21:29.598Z,10.30
2023-03-01T15:24:25.492Z,9.82
2023-03-01T15:27:19.608Z,9.40
2023-03-01T15:30:08.690Z,8.93
2023-03-01T15:33:23.258Z,9.95
2023-03-01T15:36:36.093Z,9.63
2023-03-01T15:39:38.239Z,8.65
2023-03-01T15:42:40.538Z,9.13
2023-03-01T15:45:30.673Z,10.00
2023-03-01T15:48:21.992Z,9.45
2023-03-01T15:51:16.262Z,8.38
2023-03-01T15:54:09.320Z,9.02
2023-03-01T15:56:59.509Z,8.88
2023-03-01T15:59:50.469Z,9.75
2023-03-01T16:02:40.429Z,9.30
2023-03-01T16:05:32.010Z,8.02
2023-03-01T16:08:20.928Z,10.60
2023-03-01T16:11:16.388Z,10.48
2023-03-01T16:14:05.601Z,8.18
2023-03-01T16:16:53.781Z,8.98
2023-03-01T16:19:42.021Z,9.07
2023-03-01T16:22:30.866Z,9.15
2023-03-01T16:25:20.377Z,8.88
2023-03-01T16:28:11.069Z,9.60
2023-03-01T16:31:02.357Z,9.52
2023-03-01T16:33:52.481Z,9.02
2023-03-01T16:36:40.466Z,10.10
2023-03-01T16:39:28.299Z,10.80
2023-03-01T16:42:17.386Z,10.07
2023-03-01T16:45:18.405Z,9.40
2023-03-01T16:48:13.721Z,9.13
2023-03-01T16:51:02.784Z,10.43
2023-03-01T16:53:51.002Z,10.43
2023-03-01T16:56:40.629Z,10.00
2023-03-01T16:59:31.112Z,9.77
2023-03-01T17:02:20.826Z,14.88
2023-03-01T17:05:11.987Z,12.60
2023-03-01T17:08:00.794Z,12.20
2023-03-01T17:10:48.971Z,10.30
2023-03-01T17:13:37.456Z,12.60
2023-03-01T17:16:28.826Z,11.90
2023-03-01T17:19:18.691Z,10.45
2023-03-01T17:22:07.828Z,11.25
2023-03-01T17:24:55.991Z,11.27
2023-03-01T17:27:43.784Z,13.73
2023-03-01T17:30:31.769Z,12.35
2023-03-01T17:33:20.621Z,14.20
2023-03-01T17:36:08.712Z,13.00
2023-03-01T17:39:00.115Z,15.75
2023-03-01T17:41:48.193Z,12.88
2023-03-01T17:44:36.367Z,12.80
2023-03-01T17:47:24.461Z,14.13
2023-03-01T17:50:16.504Z,14.50
2023-03-01T17:53:10.091Z,14.18
2023-03-01T17:56:04.166Z,14.55
2023-03-01T17:58:52.020Z,14.35
2023-03-01T18:01:43.428Z,12.98
2023-03-01T18:04:32.318Z,13.75
2023-03-01T18:07:20.697Z,15.00
2023-03-01T18:10:08.997Z,14.35
2023-03-01T18:12:58.185Z,13.50
2023-03-01T18:15:45.803Z,12.93
2023-03-01T18:18:33.627Z,13.68
2023-03-01T18:21:23.549Z,14.15
2023-03-01T18:24:11.464Z,13.77
2023-03-01T18:26:59.340Z,13.63
2023-03-01T18:29:48.811Z,12.85
2023-03-01T18:32:39.571Z,14.02
2023-03-01T18:35:31.524Z,13.50
2023-03-01T18:38:19.531Z,12.85
2023-03-01T18:41:07.398Z,14.32
2023-03-01T18:43:57.440Z,12.98
2023-03-01T18:46:47.329Z,13.60
2023-03-01T18:49:35.365Z,13.05
2023-03-01T18:52:23.407Z,15.75
2023-03-01T18:55:12.109Z,13.57
2023-03-01T18:57:59.832Z,13.80
2023-03-01T19:00:48.117Z,13.77
2023-03-01T19:03:38.906Z,16.17
2023-03-01T19:06:31.321Z,14.50
2023-03-01T19:09:19.287Z,15.63
2023-03-01T19:12:07.553Z,14.68
2023-03-01T19:14:55.557Z,15.23
2023-03-01T19:17:43.710Z,13.52
2023-03-01T19:20:33.173Z,14.50
2023-03-01T19:23:20.865Z,14.35
2023-03-01T19:26:11.687Z,14.65
2023-03-01T19:28:59.887Z,13.90
2023-03-01T19:31:47.838Z,13.00
2023-03-01T19:34:38.289Z,12.90
2023-03-01T19:37:28.113Z,18.38
2023-03-01T19:40:19.415Z,14.13
2023-03-01T19:43:10.631Z,14.13
2023-03-01T19:46:00.178Z,14.98
2023-03-01T19:48:50.136Z,14.82
2023-03-01T19:51:39.326Z,13.55
2023-03-01T19:54:28.772Z,14.65
2023-03-01T19:57:17.773Z,23.75
2023-03-01T20:00:06.738Z,16.13
2023-03-01T20:02:56.579Z,16.30
2023-03-01T20:05:46.569Z,15.95
2023-03-01T20:08:34.619Z,16.20
2023-03-01T20:11:24.252Z,16.85
2023-03-01T20:14:13.139Z,15.75
2023-03-01T20:17:01.157Z,15.18
2023-03-01T20:19:49.202Z,15.50
2023-03-01T20:22:37.251Z,16.05
2023-03-01T20:25:25.133Z,15.85
2023-03-01T20:28:14.468Z,14.85
2023-03-01T20:31:07.707Z,14.68
2023-03-01T20:33:57.747Z,15.40
2023-03-01T20:36:45.968Z,14.80
2023-03-01T20:39:33.620Z,14.90
2023-03-01T20:42:21.773Z,14.82
2023-03-01T20:45:12.148Z,16.20
2023-03-01T20:48:00.295Z,14.80
2023-03-01T20:50:48.538Z,15.40
2023-03-01T20:53:36.600Z,15.40
2023-03-01T20:56:26.796Z,15.23
2023-03-01T20:59:15.869Z,15.02
2023-03-01T21:02:05.261Z,15.30
2023-03-01T21:04:53.051Z,14.30
2023-03-01T21:07:40.911Z,13.73
2023-03-01T21:10:28.847Z,15.75
2023-03-01T21:13:17.063Z,15.73
2023-03-01T21:16:08.028Z,14.35
2023-03-01T21:18:57.447Z,14.07
2023-03-01T21:21:45.462Z,16.80
2023-03-01T21:24:34.054Z,15.15
2023-03-01T21:27:21.817Z,14.48
2023-03-01T21:30:11.292Z,14.43
2023-03-01T21:32:59.414Z,14.70
2023-03-01T21:35:49.063Z,14.23
2023-03-01T21:38:38.545Z,15.50
2023-03-01T21:41:28.054Z,14.30
2023-03-01T21:44:16.104Z,14.50
2023-03-01T21:47:04.228Z,14.65
2023-03-01T21:49:52.077Z,14.60
2023-03-01T21:52:41.347Z,17.27
2023-03-01T21:55:29.314Z,14.80
2023-03-01T21:58:17.380Z,14.77
2023-03-01T22:01:10.263Z,14.13
2023-03-01T22:03:59.856Z,15.13
2023-03-01T22:06:48.221Z,16.00
2023-03-01T22:09:38.952Z,13.80
2023-03-01T22:12:26.696Z,14.52
2023-03-01T22:15:14.634Z,13.98
2023-03-01T22:18:02.262Z,15.68
2023-03-01T22:20:50.294Z,15.35
2023-03-01T22:23:39.944Z,16.42
2023-03-01T22:26:31.678Z,13.70
2023-03-01T22:29:24.780Z,13.20
2023-03-01T22:32:12.792Z,14.27
2023-03-01T22:35:00.885Z,14.43
2023-03-01T22:37:48.726Z,15.27
2023-03-01T22:40:38.534Z,17.75
2023-03-01T22:43:30.016Z,14.98
2023-03-01T22:46:20.053Z,14.25
2023-03-01T22:49:08.287Z,13.07
2023-03-01T22:51:56.386Z,15.18
2023-03-01T22:54:44.414Z,12.82
2023-03-01T22:57:32.223Z,13.65
2023-03-01T23:00:22.553Z,13.55
2023-03-01T23:03:10.663Z,13.00
2023-03-01T23:05:58.468Z,13.18
2023-03-01T23:08:49.694Z,13.40
2023-03-01T23:11:37.471Z,15.07
2023-03-01T23:14:26.088Z,15.85
2023-03-01T23:17:15.504Z,15.02
2023-03-01T23:20:07.042Z,14.13
2023-03-01T23:23:01.558Z,15.20
2023-03-01T23:25:56.712Z,13.40
2023-03-01T23:28:45.250Z,14.15
2023-03-01T23:31:32.966Z,14.73
2023-03-01T23:34:22.424Z,16.40
2023-03-01T23:37:10.971Z,14.80
2023-03-01T23:39:58.699Z,14.80
2023-03-01T23:42:47.090Z,14.20
2023-03-01T23:45:37.763Z,13.93
2023-03-01T23:48:25.604Z,14.15
2023-03-01T23:51:15.967Z,16.35
2023-03-01T23:54:05.438Z,17.17
2023-03-01T23:56:53.472Z,14.88
2023-03-01T23:59:41.947Z,13.10
